sensor_id;sensor_type;location;lat;lon;timestamp;pressure;altitude;pressure_sealevel;temperature;humidity
9899;BME280;4988;49.238;6.698;2022-12-10T00:01:40;98083.72;;;-0.52;100.00
9899;BME280;4988;49.238;6.698;2022-12-10T00:04:06;98078.47;;;-0.51;100.00
9899;BME280;4988;49.238;6.698;2022-12-10T00:06:34;98073.06;;;-0.41;100.00
9899;BME280;4988;49.238;6.698;2022-12-10T00:09:01;98067.50;;;-0.24;100.00
9899;BME280;4988;49.238;6.698;2022-12-10T00:11:27;98075.16;;;-0.15;100.00
9899;BME280;4988;49.238;6.698;2022-12-10T00:13:52;98072.38;;;-0.06;100.00
9899;BME280;4988;49.238;6.698;2022-12-10T00:16:20;98072.28;;;-0.03;100.00
9899;BME280;4988;49.238;6.698;2022-12-10T00:18:46;98076.59;;;0.02;100.00
9899;BME280;4988;49.238;6.698;2022-12-10T00:21:15;98069.72;;;-0.04;100.00
9899;BME280;4988;49.238;6.698;2022-12-10T00:23:41;98069.66;;;-0.01;100.00
9899;BME280;4988;49.238;6.698;2022-12-10T00:26:09;98075.75;;;-0.01;100.00
9899;BME280;4988;49.238;6.698;2022-12-10T00:28:35;98070.59;;;-0.04;100.00
9899;BME280;4988;49.238;6.698;2022-12-10T00:31:12;98073.16;;;-0.02;100.00
9899;BME280;4988;49.238;6.698;2022-12-10T00:33:38;98070.34;;;0.09;100.00
9899;BME280;4988;49.238;6.698;2022-12-10T00:36:07;98078.31;;;0.03;100.00
9899;BME280;4988;49.238;6.698;2022-12-10T00:38:33;98074.81;;;0.02;100.00
9899;BME280;4988;49.238;6.698;2022-12-10T00:40:59;98079.16;;;0.03;100.00
9899;BME280;4988;49.238;6.698;2022-12-10T00:43:24;98080.94;;;0.03;100.00
9899;BME280;4988;49.238;6.698;2022-12-10T00:45:50;98084.44;;;0.02;100.00
9899;BME280;4988;49.238;6.698;2022-12-10T00:48:15;98080.13;;;-0.01;100.00
9899;BME280;4988;49.238;6.698;2022-12-10T00:50:40;98087.22;;;-0.08;100.00
9899;BME280;4988;49.238;6.698;2022-12-10T00:53:05;98088.13;;;-0.09;100.00
9899;BME280;4988;49.238;6.698;2022-12-10T00:55:31;98089.25;;;-0.22;100.00
9899;BME280;4988;49.238;6.698;2022-12-10T00:57:56;98090.41;;;-0.37;100.00
9899;BME280;4988;49.238;6.698;2022-12-10T01:00:22;98095.88;;;-0.48;100.00
9899;BME280;4988;49.238;6.698;2022-12-10T01:02:47;98096.91;;;-0.58;100.00
9899;BME280;4988;49.238;6.698;2022-12-10T01:05:12;98107.56;;;-0.71;100.00
9899;BME280;4988;49.238;6.698;2022-12-10T01:07:37;98104.22;;;-0.77;100.00
9899;BME280;4988;49.238;6.698;2022-12-10T01:10:03;98112.03;;;-0.76;100.00
9899;BME280;4988;49.238;6.698;2022-12-10T01:12:29;98111.09;;;-0.73;100.00
9899;BME280;4988;49.238;6.698;2022-12-10T01:14:54;98110.16;;;-0.69;100.00
9899;BME280;4988;49.238;6.698;2022-12-10T01:17:19;98111.06;;;-0.72;100.00
9899;BME280;4988;49.238;6.698;2022-12-10T01:19:46;98114.31;;;-0.57;100.00
9899;BME280;4988;49.238;6.698;2022-12-10T01:22:12;98108.13;;;-0.53;100.00
9899;BME280;4988;49.238;6.698;2022-12-10T01:24:37;98110.59;;;-0.44;100.00
9899;BME280;4988;49.238;6.698;2022-12-10T01:27:02;98112.13;;;-0.34;100.00
9899;BME280;4988;49.238;6.698;2022-12-10T01:29:28;98116.19;;;-0.17;100.00
9899;BME280;4988;49.238;6.698;2022-12-10T01:31:54;98112.13;;;-0.32;100.00
9899;BME280;4988;49.238;6.698;2022-12-10T01:34:20;98112.13;;;-0.32;100.00
9899;BME280;4988;49.238;6.698;2022-12-10T01:36:49;98110.97;;;-0.17;100.00
9899;BME280;4988;49.238;6.698;2022-12-10T01:39:16;98116.88;;;-0.09;100.00
9899;BME280;4988;49.238;6.698;2022-12-10T01:41:46;98119.66;;;-0.17;100.00
9899;BME280;4988;49.238;6.698;2022-12-10T01:46:45;98122.00;;;-0.01;100.00
9899;BME280;4988;49.238;6.698;2022-12-10T01:49:18;98123.59;;;0.05;100.00
9899;BME280;4988;49.238;6.698;2022-12-10T01:51:46;98130.47;;;0.10;100.00
9899;BME280;4988;49.238;6.698;2022-12-10T01:54:23;98129.59;;;0.10;100.00
9899;BME280;4988;49.238;6.698;2022-12-10T01:57:03;98127.66;;;0.21;100.00
9899;BME280;4988;49.238;6.698;2022-12-10T01:59:30;98135.50;;;0.21;100.00
9899;BME280;4988;49.238;6.698;2022-12-10T02:05:21;98123.88;;;0.35;100.00
9899;BME280;4988;49.238;6.698;2022-12-10T02:07:57;98129.91;;;0.37;100.00
9899;BME280;4988;49.238;6.698;2022-12-10T02:16:18;98131.91;;;0.25;100.00
9899;BME280;4988;49.238;6.698;2022-12-10T02:18:47;98130.09;;;0.29;100.00
9899;BME280;4988;49.238;6.698;2022-12-10T02:21:41;98130.19;;;0.24;100.00
9899;BME280;4988;49.238;6.698;2022-12-10T02:24:11;98133.63;;;0.26;100.00
9899;BME280;4988;49.238;6.698;2022-12-10T02:26:58;98129.28;;;0.25;100.00
9899;BME280;4988;49.238;6.698;2022-12-10T02:29:28;98121.75;;;0.10;100.00
9899;BME280;4988;49.238;6.698;2022-12-10T02:31:59;98124.06;;;0.25;100.00
9899;BME280;4988;49.238;6.698;2022-12-10T02:34:29;98125.06;;;0.18;100.00
9899;BME280;4988;49.238;6.698;2022-12-10T02:37:00;98121.94;;;0.01;100.00
9899;BME280;4988;49.238;6.698;2022-12-10T02:39:34;98121.75;;;0.10;100.00
9899;BME280;4988;49.238;6.698;2022-12-10T02:42:02;98121.75;;;0.11;100.00
9899;BME280;4988;49.238;6.698;2022-12-10T02:44:29;98117.72;;;-0.07;100.00
9899;BME280;4988;49.238;6.698;2022-12-10T02:46:57;98113.59;;;-0.19;100.00
9899;BME280;4988;49.238;6.698;2022-12-10T02:49:24;98119.81;;;-0.24;100.00
9899;BME280;4988;49.238;6.698;2022-12-10T02:51:51;98112.63;;;-0.13;100.00
9899;BME280;4988;49.238;6.698;2022-12-10T02:57:11;98111.31;;;-0.36;100.00
9899;BME280;4988;49.238;6.698;2022-12-10T03:00:00;98114.88;;;-0.40;100.00
9899;BME280;4988;49.238;6.698;2022-12-10T03:13:13;98109.84;;;-0.05;100.00
9899;BME280;4988;49.238;6.698;2022-12-10T03:15:41;98113.84;;;0.13;100.00
9899;BME280;4988;49.238;6.698;2022-12-10T03:18:08;98113.81;;;0.14;100.00
9899;BME280;4988;49.238;6.698;2022-12-10T03:20:39;98112.88;;;0.19;100.00
9899;BME280;4988;49.238;6.698;2022-12-10T03:23:09;98119.81;;;0.20;100.00
9899;BME280;4988;49.238;6.698;2022-12-10T03:25:37;98117.03;;;0.27;100.00
9899;BME280;4988;49.238;6.698;2022-12-10T03:28:03;98113.66;;;0.22;100.00
9899;BME280;4988;49.238;6.698;2022-12-10T03:30:31;98116.25;;;0.24;100.00
9899;BME280;4988;49.238;6.698;2022-12-10T03:32:57;98113.66;;;0.22;100.00
9899;BME280;4988;49.238;6.698;2022-12-10T03:35:23;98119.66;;;0.26;100.00
9899;BME280;4988;49.238;6.698;2022-12-10T03:37:49;98113.59;;;0.25;100.00
9899;BME280;4988;49.238;6.698;2022-12-10T03:40:16;98119.66;;;0.26;100.00
9899;BME280;4988;49.238;6.698;2022-12-10T03:42:43;98116.22;;;0.25;100.00
9899;BME280;4988;49.238;6.698;2022-12-10T03:45:08;98120.59;;;0.25;100.00
9899;BME280;4988;49.238;6.698;2022-12-10T03:47:34;98120.47;;;0.29;100.00
9899;BME280;4988;49.238;6.698;2022-12-10T03:49:59;98120.91;;;0.09;100.00
9899;BME280;4988;49.238;6.698;2022-12-10T03:52:24;98122.63;;;0.10;100.00
9899;BME280;4988;49.238;6.698;2022-12-10T03:54:50;98123.25;;;0.22;100.00
9899;BME280;4988;49.238;6.698;2022-12-10T03:57:15;98125.28;;;0.09;100.00
9899;BME280;4988;49.238;6.698;2022-12-10T03:59:41;98125.13;;;0.17;100.00
9899;BME280;4988;49.238;6.698;2022-12-10T04:02:06;98129.47;;;0.16;100.00
9899;BME280;4988;49.238;6.698;2022-12-10T04:04:31;98132.22;;;0.10;100.00
9899;BME280;4988;49.238;6.698;2022-12-10T04:06:57;98131.41;;;0.08;100.00
9899;BME280;4988;49.238;6.698;2022-12-10T04:09:22;98135.44;;;0.23;100.00
9899;BME280;4988;49.238;6.698;2022-12-10T04:11:47;98131.84;;;0.28;100.00
9899;BME280;4988;49.238;6.698;2022-12-10T04:14:13;98132.66;;;0.30;100.00
9899;BME280;4988;49.238;6.698;2022-12-10T04:16:58;98131.66;;;0.38;100.00
9899;BME280;4988;49.238;6.698;2022-12-10T04:19:23;98120.25;;;0.40;100.00
9899;BME280;4988;49.238;6.698;2022-12-10T04:21:49;98134.00;;;0.50;100.00
9899;BME280;4988;49.238;6.698;2022-12-10T04:24:34;98135.00;;;0.44;100.00
9899;BME280;4988;49.238;6.698;2022-12-10T04:27:28;98126.31;;;0.42;100.00
9899;BME280;4988;49.238;6.698;2022-12-10T04:29:56;98132.34;;;0.46;100.00
9899;BME280;4988;49.238;6.698;2022-12-10T04:32:24;98137.56;;;0.47;100.00
9899;BME280;4988;49.238;6.698;2022-12-10T04:34:50;98130.63;;;0.45;100.00
9899;BME280;4988;49.238;6.698;2022-12-10T04:37:16;98142.81;;;0.46;100.00
9899;BME280;4988;49.238;6.698;2022-12-10T04:39:42;98141.00;;;0.48;100.00
9899;BME280;4988;49.238;6.698;2022-12-10T04:42:08;98144.56;;;0.47;100.00
9899;BME280;4988;49.238;6.698;2022-12-10T04:44:34;98153.47;;;0.37;100.00
9899;BME280;4988;49.238;6.698;2022-12-10T04:47:00;98154.50;;;0.31;100.00
9899;BME280;4988;49.238;6.698;2022-12-10T04:49:26;98155.38;;;0.30;100.00
9899;BME280;4988;49.238;6.698;2022-12-10T04:51:52;98147.56;;;0.27;100.00
9899;BME280;4988;49.238;6.698;2022-12-10T04:54:18;98153.59;;;0.30;100.00
9899;BME280;4988;49.238;6.698;2022-12-10T04:56:44;98146.66;;;0.29;100.00
9899;BME280;4988;49.238;6.698;2022-12-10T04:59:10;98147.78;;;0.18;100.00
9899;BME280;4988;49.238;6.698;2022-12-10T05:01:36;98152.25;;;0.11;100.00
9899;BME280;4988;49.238;6.698;2022-12-10T05:04:03;98156.00;;;-0.03;100.00
9899;BME280;4988;49.238;6.698;2022-12-10T05:06:29;98157.72;;;-0.02;100.00
9899;BME280;4988;49.238;6.698;2022-12-10T05:08:56;98158.72;;;-0.07;100.00
9899;BME280;4988;49.238;6.698;2022-12-10T05:11:23;98149.06;;;-0.04;100.00
9899;BME280;4988;49.238;6.698;2022-12-10T05:13:49;98155.00;;;0.06;100.00
9899;BME280;4988;49.238;6.698;2022-12-10T05:16:16;98157.59;;;0.05;100.00
9899;BME280;4988;49.238;6.698;2022-12-10T05:18:41;98154.75;;;0.17;100.00
9899;BME280;4988;49.238;6.698;2022-12-10T05:21:13;98152.25;;;0.11;100.00
9899;BME280;4988;49.238;6.698;2022-12-10T05:23:42;98155.63;;;0.16;100.00
9899;BME280;4988;49.238;6.698;2022-12-10T05:26:22;98156.50;;;0.17;100.00
9899;BME280;4988;49.238;6.698;2022-12-10T05:28:53;98158.81;;;0.32;100.00
9899;BME280;4988;49.238;6.698;2022-12-10T05:31:23;98166.38;;;0.46;100.00
9899;BME280;4988;49.238;6.698;2022-12-10T05:33:49;98167.94;;;0.55;100.00
9899;BME280;4988;49.238;6.698;2022-12-10T05:36:17;98165.28;;;0.56;100.00
9899;BME280;4988;49.238;6.698;2022-12-10T05:38:44;98172.13;;;0.63;99.76
9899;BME280;4988;49.238;6.698;2022-12-10T05:41:15;98165.00;;;0.69;98.00
9899;BME280;4988;49.238;6.698;2022-12-10T05:43:41;98171.94;;;0.73;96.69
9899;BME280;4988;49.238;6.698;2022-12-10T05:46:10;98176.28;;;0.72;95.75
9899;BME280;4988;49.238;6.698;2022-12-10T05:48:35;98174.38;;;0.80;95.41
9899;BME280;4988;49.238;6.698;2022-12-10T05:51:05;98175.16;;;0.84;94.28
9899;BME280;4988;49.238;6.698;2022-12-10T05:53:30;98183.81;;;0.86;95.54
9899;BME280;4988;49.238;6.698;2022-12-10T05:56:00;98181.25;;;0.85;94.89
9899;BME280;4988;49.238;6.698;2022-12-10T05:58:27;98181.19;;;0.88;93.48
9899;BME280;4988;49.238;6.698;2022-12-10T06:00:53;98180.59;;;0.76;93.78
9899;BME280;4988;49.238;6.698;2022-12-10T06:03:18;98184.84;;;0.80;94.11
9899;BME280;4988;49.238;6.698;2022-12-10T06:05:44;98190.22;;;0.74;94.43
9899;BME280;4988;49.238;6.698;2022-12-10T06:08:09;98185.84;;;0.75;93.58
9899;BME280;4988;49.238;6.698;2022-12-10T06:10:34;98190.88;;;0.84;93.65
9899;BME280;4988;49.238;6.698;2022-12-10T06:13:00;98201.41;;;0.83;93.67
9899;BME280;4988;49.238;6.698;2022-12-10T06:15:25;98204.88;;;0.83;93.95
9899;BME280;4988;49.238;6.698;2022-12-10T06:17:51;98210.28;;;0.74;95.61
9899;BME280;4988;49.238;6.698;2022-12-10T06:20:16;98213.78;;;0.74;96.33
9899;BME280;4988;49.238;6.698;2022-12-10T06:22:42;98216.41;;;0.74;96.91
9899;BME280;4988;49.238;6.698;2022-12-10T06:25:07;98218.19;;;0.72;97.38
9899;BME280;4988;49.238;6.698;2022-12-10T06:27:33;98219.34;;;0.60;97.63
9899;BME280;4988;49.238;6.698;2022-12-10T06:29:58;98220.00;;;0.69;97.93
9899;BME280;4988;49.238;6.698;2022-12-10T06:32:24;98220.91;;;0.68;98.34
9899;BME280;4988;49.238;6.698;2022-12-10T06:34:49;98226.19;;;0.66;98.32
9899;BME280;4988;49.238;6.698;2022-12-10T06:37:15;98235.78;;;0.67;98.97
9899;BME280;4988;49.238;6.698;2022-12-10T06:39:40;98233.94;;;0.71;99.04
9899;BME280;4988;49.238;6.698;2022-12-10T06:42:05;98241.72;;;0.74;98.57
9899;BME280;4988;49.238;6.698;2022-12-10T06:44:31;98243.41;;;0.78;98.41
9899;BME280;4988;49.238;6.698;2022-12-10T06:46:56;98253.13;;;0.73;97.44
9899;BME280;4988;49.238;6.698;2022-12-10T06:49:22;98252.03;;;0.83;96.11
9899;BME280;4988;49.238;6.698;2022-12-10T06:51:47;98252.88;;;0.85;95.76
9899;BME280;4988;49.238;6.698;2022-12-10T06:54:13;98260.59;;;0.90;95.32
9899;BME280;4988;49.238;6.698;2022-12-10T06:56:38;98253.19;;;0.70;96.60
9899;BME280;4988;49.238;6.698;2022-12-10T06:59:05;98264.19;;;0.43;99.72
9899;BME280;4988;49.238;6.698;2022-12-10T07:01:31;98259.19;;;0.31;100.00
9899;BME280;4988;49.238;6.698;2022-12-10T07:03:57;98257.63;;;0.21;100.00
9899;BME280;4988;49.238;6.698;2022-12-10T07:06:25;98256.75;;;0.20;100.00
9899;BME280;4988;49.238;6.698;2022-12-10T07:08:51;98258.25;;;0.34;100.00
9899;BME280;4988;49.238;6.698;2022-12-10T07:11:19;98254.69;;;0.38;100.00
9899;BME280;4988;49.238;6.698;2022-12-10T07:13:45;98262.38;;;0.47;100.00
9899;BME280;4988;49.238;6.698;2022-12-10T07:16:18;98264.88;;;0.53;100.00
9899;BME280;4988;49.238;6.698;2022-12-10T07:18:44;98274.28;;;0.62;100.00
9899;BME280;4988;49.238;6.698;2022-12-10T07:23:50;98276.16;;;0.57;100.00
9899;BME280;4988;49.238;6.698;2022-12-10T07:26:15;98278.78;;;0.55;100.00
9899;BME280;4988;49.238;6.698;2022-12-10T07:28:40;98283.19;;;0.53;100.00
9899;BME280;4988;49.238;6.698;2022-12-10T07:31:07;98280.00;;;0.37;100.00
9899;BME280;4988;49.238;6.698;2022-12-10T07:33:34;98289.78;;;0.27;100.00
9899;BME280;4988;49.238;6.698;2022-12-10T07:36:03;98291.72;;;0.18;100.00
9899;BME280;4988;49.238;6.698;2022-12-10T07:38:28;98298.78;;;0.11;100.00
9899;BME280;4988;49.238;6.698;2022-12-10T07:40:54;98295.13;;;0.21;100.00
9899;BME280;4988;49.238;6.698;2022-12-10T07:43:19;98301.09;;;0.28;100.00
9899;BME280;4988;49.238;6.698;2022-12-10T07:45:44;98300.94;;;0.36;100.00
9899;BME280;4988;49.238;6.698;2022-12-10T07:48:10;98302.00;;;0.28;100.00
9899;BME280;4988;49.238;6.698;2022-12-10T07:50:35;98294.91;;;0.32;100.00
9899;BME280;4988;49.238;6.698;2022-12-10T07:53:01;98299.38;;;0.28;100.00
9899;BME280;4988;49.238;6.698;2022-12-10T07:55:26;98294.19;;;0.25;100.00
9899;BME280;4988;49.238;6.698;2022-12-10T07:57:52;98296.69;;;0.31;100.00
9899;BME280;4988;49.238;6.698;2022-12-10T08:00:17;98303.53;;;0.39;100.00
9899;BME280;4988;49.238;6.698;2022-12-10T08:02:44;98311.31;;;0.43;100.00
9899;BME280;4988;49.238;6.698;2022-12-10T08:05:10;98309.38;;;0.53;100.00
9899;BME280;4988;49.238;6.698;2022-12-10T08:07:36;98315.44;;;0.55;100.00
9899;BME280;4988;49.238;6.698;2022-12-10T08:10:02;98322.44;;;0.55;100.00
9899;BME280;4988;49.238;6.698;2022-12-10T08:12:28;98319.00;;;0.51;100.00
9899;BME280;4988;49.238;6.698;2022-12-10T08:14:54;98320.28;;;0.30;100.00
9899;BME280;4988;49.238;6.698;2022-12-10T08:17:19;98333.44;;;0.25;100.00
9899;BME280;4988;49.238;6.698;2022-12-10T08:19:44;98333.53;;;0.19;100.00
9899;BME280;4988;49.238;6.698;2022-12-10T08:22:10;98331.84;;;0.17;100.00
9899;BME280;4988;49.238;6.698;2022-12-10T08:24:35;98330.03;;;0.20;100.00
9899;BME280;4988;49.238;6.698;2022-12-10T08:27:01;98325.69;;;0.19;100.00
9899;BME280;4988;49.238;6.698;2022-12-10T08:29:26;98334.31;;;0.24;100.00
9899;BME280;4988;49.238;6.698;2022-12-10T08:31:52;98339.41;;;0.32;100.00
9899;BME280;4988;49.238;6.698;2022-12-10T08:34:18;98343.00;;;0.26;100.00
9899;BME280;4988;49.238;6.698;2022-12-10T08:36:45;98346.56;;;0.24;100.00
9899;BME280;4988;49.238;6.698;2022-12-10T08:39:11;98341.25;;;0.27;100.00
9899;BME280;4988;49.238;6.698;2022-12-10T08:41:40;98344.56;;;0.38;100.00
9899;BME280;4988;49.238;6.698;2022-12-10T08:44:06;98348.88;;;0.41;100.00
9899;BME280;4988;49.238;6.698;2022-12-10T08:46:31;98346.25;;;0.39;100.00
9899;BME280;4988;49.238;6.698;2022-12-10T08:48:56;98348.88;;;0.41;100.00
9899;BME280;4988;49.238;6.698;2022-12-10T08:51:22;98357.63;;;0.40;100.00
9899;BME280;4988;49.238;6.698;2022-12-10T08:53:47;98356.81;;;0.36;100.00
9899;BME280;4988;49.238;6.698;2022-12-10T08:56:13;98359.47;;;0.35;100.00
9899;BME280;4988;49.238;6.698;2022-12-10T08:58:39;98366.34;;;0.39;100.00
9899;BME280;4988;49.238;6.698;2022-12-10T09:01:13;98368.91;;;0.42;100.00
9899;BME280;4988;49.238;6.698;2022-12-10T09:03:40;98367.97;;;0.46;100.00
9899;BME280;4988;49.238;6.698;2022-12-10T09:06:09;98378.38;;;0.49;100.00
9899;BME280;4988;49.238;6.698;2022-12-10T09:08:35;98382.50;;;0.62;100.00
9899;BME280;4988;49.238;6.698;2022-12-10T09:11:08;98380.78;;;0.63;100.00
9899;BME280;4988;49.238;6.698;2022-12-10T09:13:34;98388.56;;;0.66;100.00
9899;BME280;4988;49.238;6.698;2022-12-10T09:15:59;98379.84;;;0.66;100.00
9899;BME280;4988;49.238;6.698;2022-12-10T09:18:25;98387.75;;;0.62;100.00
9899;BME280;4988;49.238;6.698;2022-12-10T09:20:50;98389.56;;;0.60;100.00
9899;BME280;4988;49.238;6.698;2022-12-10T09:23:15;98393.16;;;0.53;100.00
9899;BME280;4988;49.238;6.698;2022-12-10T09:25:41;98389.56;;;0.59;100.00
9899;BME280;4988;49.238;6.698;2022-12-10T09:28:06;98392.91;;;0.67;100.00
9899;BME280;4988;49.238;6.698;2022-12-10T09:30:31;98395.16;;;0.87;100.00
9899;BME280;4988;49.238;6.698;2022-12-10T09:32:56;98398.31;;;1.05;100.00
9899;BME280;4988;49.238;6.698;2022-12-10T09:35:22;98397.28;;;1.12;100.00
9899;BME280;4988;49.238;6.698;2022-12-10T09:37:47;98399.69;;;1.23;100.00
9899;BME280;4988;49.238;6.698;2022-12-10T09:40:18;98394.28;;;1.31;99.67
9899;BME280;4988;49.238;6.698;2022-12-10T09:43:36;98396.28;;;1.19;98.83
9899;BME280;4988;49.238;6.698;2022-12-10T09:45:42;98407.78;;;1.12;99.50
9899;BME280;4988;49.238;6.698;2022-12-10T09:51:19;98407.69;;;1.17;99.05
9899;BME280;4988;49.238;6.698;2022-12-10T09:53:47;98401.50;;;1.19;98.56
9899;BME280;4988;49.238;6.698;2022-12-10T09:56:21;98403.88;;;1.33;98.40
9899;BME280;4988;49.238;6.698;2022-12-10T09:58:47;98399.34;;;1.40;97.93
9899;BME280;4988;49.238;6.698;2022-12-10T10:01:14;98393.84;;;1.52;97.34
9899;BME280;4988;49.238;6.698;2022-12-10T10:03:41;98396.47;;;1.52;96.57
9899;BME280;4988;49.238;6.698;2022-12-10T10:06:12;98393.66;;;1.62;95.92
9899;BME280;4988;49.238;6.698;2022-12-10T10:08:40;98391.94;;;1.60;93.16
9899;BME280;4988;49.238;6.698;2022-12-10T10:11:12;98390.06;;;1.66;92.04
9899;BME280;4988;49.238;6.698;2022-12-10T10:13:42;98392.06;;;1.54;91.89
9899;BME280;4988;49.238;6.698;2022-12-10T10:18:52;98392.88;;;1.56;90.52
9899;BME280;4988;49.238;6.698;2022-12-10T10:21:23;98395.56;;;1.53;90.06
9899;BME280;4988;49.238;6.698;2022-12-10T10:23:48;98392.88;;;1.58;91.61
9899;BME280;4988;49.238;6.698;2022-12-10T10:26:14;98391.88;;;1.62;91.01
9899;BME280;4988;49.238;6.698;2022-12-10T10:28:40;98391.00;;;1.63;90.83
9899;BME280;4988;49.238;6.698;2022-12-10T10:31:19;98397.13;;;1.62;90.54
9899;BME280;4988;49.238;6.698;2022-12-10T10:34:00;98396.28;;;1.62;90.48
9899;BME280;4988;49.238;6.698;2022-12-10T10:36:34;98391.19;;;1.54;90.71
9899;BME280;4988;49.238;6.698;2022-12-10T10:39:27;98390.38;;;1.50;91.08
9899;BME280;4988;49.238;6.698;2022-12-10T10:41:54;98387.63;;;1.56;90.17
9899;BME280;4988;49.238;6.698;2022-12-10T10:44:22;98386.69;;;1.60;90.13
9899;BME280;4988;49.238;6.698;2022-12-10T10:46:50;98387.56;;;1.59;90.01
9899;BME280;4988;49.238;6.698;2022-12-10T10:49:32;98380.56;;;1.60;89.74
9899;BME280;4988;49.238;6.698;2022-12-10T10:52:11;98381.44;;;1.60;89.01
9899;BME280;4988;49.238;6.698;2022-12-10T10:54:40;98385.94;;;1.55;89.54
9899;BME280;4988;49.238;6.698;2022-12-10T10:57:13;98386.72;;;1.59;89.04
9899;BME280;4988;49.238;6.698;2022-12-10T10:59:40;98384.03;;;1.62;88.62
9899;BME280;4988;49.238;6.698;2022-12-10T11:02:37;98388.38;;;1.63;88.14
9899;BME280;4988;49.238;6.698;2022-12-10T11:05:26;98380.50;;;1.63;87.79
9899;BME280;4988;49.238;6.698;2022-12-10T11:08:05;98387.31;;;1.72;88.23
9899;BME280;4988;49.238;6.698;2022-12-10T11:10:32;98388.13;;;1.74;88.48
9899;BME280;4988;49.238;6.698;2022-12-10T11:13:03;98390.91;;;1.68;87.64
9899;BME280;4988;49.238;6.698;2022-12-10T11:15:31;98393.44;;;1.71;87.37
9899;BME280;4988;49.238;6.698;2022-12-10T11:17:57;98386.50;;;1.68;87.35
9899;BME280;4988;49.238;6.698;2022-12-10T11:20:26;98389.94;;;1.72;86.65
9899;BME280;4988;49.238;6.698;2022-12-10T11:23:01;98396.91;;;1.73;86.53
9899;BME280;4988;49.238;6.698;2022-12-10T11:25:42;98392.53;;;1.72;86.87
9899;BME280;4988;49.238;6.698;2022-12-10T11:31:05;98394.97;;;1.81;88.08
9899;BME280;4988;49.238;6.698;2022-12-10T11:34:04;98396.69;;;1.82;88.39
9899;BME280;4988;49.238;6.698;2022-12-10T11:42:07;98391.38;;;1.85;86.91
9899;BME280;4988;49.238;6.698;2022-12-10T11:47:44;98398.34;;;1.86;87.28
9899;BME280;4988;49.238;6.698;2022-12-10T11:50:15;98405.38;;;1.84;87.61
9899;BME280;4988;49.238;6.698;2022-12-10T11:53:02;98403.50;;;1.91;86.68
9899;BME280;4988;49.238;6.698;2022-12-10T11:58:23;98401.34;;;2.07;85.31
9899;BME280;4988;49.238;6.698;2022-12-10T12:04:04;98415.78;;;1.89;85.45
9899;BME280;4988;49.238;6.698;2022-12-10T12:07:10;98408.47;;;2.02;84.83
9899;BME280;4988;49.238;6.698;2022-12-10T12:09:51;98403.16;;;2.05;82.67
9899;BME280;4988;49.238;6.698;2022-12-10T12:15:35;98398.63;;;2.13;81.76
9899;BME280;4988;49.238;6.698;2022-12-10T12:18:09;98402.22;;;2.07;83.08
9899;BME280;4988;49.238;6.698;2022-12-10T12:20:45;98409.22;;;2.08;83.04
9899;BME280;4988;49.238;6.698;2022-12-10T12:23:31;98404.41;;;2.26;80.70
9899;BME280;4988;49.238;6.698;2022-12-10T12:26:20;98401.16;;;2.16;80.56
9899;BME280;4988;49.238;6.698;2022-12-10T12:29:10;98410.16;;;2.06;82.61
9899;BME280;4988;49.238;6.698;2022-12-10T12:31:39;98409.31;;;2.04;82.50
9899;BME280;4988;49.238;6.698;2022-12-10T12:34:26;98407.28;;;2.15;82.55
9899;BME280;4988;49.238;6.698;2022-12-10T12:36:53;98408.88;;;2.22;82.43
9899;BME280;4988;49.238;6.698;2022-12-10T12:42:06;98409.78;;;2.21;82.91
9899;BME280;4988;49.238;6.698;2022-12-10T12:47:48;98412.19;;;2.31;81.32
9899;BME280;4988;49.238;6.698;2022-12-10T12:53:17;98411.34;;;2.29;80.72
9899;BME280;4988;49.238;6.698;2022-12-10T12:55:44;98417.34;;;2.34;80.75
9899;BME280;4988;49.238;6.698;2022-12-10T12:58:40;98418.06;;;2.40;79.44
9899;BME280;4988;49.238;6.698;2022-12-10T13:01:34;98425.94;;;2.40;79.71
9899;BME280;4988;49.238;6.698;2022-12-10T13:04:03;98427.94;;;2.31;79.39
9899;BME280;4988;49.238;6.698;2022-12-10T13:06:35;98425.47;;;2.24;77.97
9899;BME280;4988;49.238;6.698;2022-12-10T13:18:00;98433.34;;;2.23;77.32
9899;BME280;4988;49.238;6.698;2022-12-10T13:19:49;98436.72;;;2.30;78.51
9899;BME280;4988;49.238;6.698;2022-12-10T13:25:15;98433.63;;;2.48;76.50
9899;BME280;4988;49.238;6.698;2022-12-10T13:27:42;98436.22;;;2.50;74.79
9899;BME280;4988;49.238;6.698;2022-12-10T13:30:33;98437.19;;;2.46;75.07
9899;BME280;4988;49.238;6.698;2022-12-10T13:33:11;98446.03;;;2.43;74.62
9899;BME280;4988;49.238;6.698;2022-12-10T13:35:48;98443.28;;;2.48;74.94
9899;BME280;4988;49.238;6.698;2022-12-10T13:38:24;98443.31;;;2.46;74.25
9899;BME280;4988;49.238;6.698;2022-12-10T13:40:59;98449.41;;;2.48;74.12
9899;BME280;4988;49.238;6.698;2022-12-10T13:43:52;98452.03;;;2.48;73.75
9899;BME280;4988;49.238;6.698;2022-12-10T13:47:03;98452.06;;;2.47;74.73
9899;BME280;4988;49.238;6.698;2022-12-10T13:49:30;98466.94;;;2.46;74.50
9899;BME280;4988;49.238;6.698;2022-12-10T13:52:03;98456.44;;;2.48;73.79
9899;BME280;4988;49.238;6.698;2022-12-10T13:54:59;98461.69;;;2.46;73.75
9899;BME280;4988;49.238;6.698;2022-12-10T13:57:48;98464.47;;;2.40;74.94
9899;BME280;4988;49.238;6.698;2022-12-10T14:00:21;98457.22;;;2.50;75.36
9899;BME280;4988;49.238;6.698;2022-12-10T14:03:09;98468.69;;;2.47;75.08
9899;BME280;4988;49.238;6.698;2022-12-10T14:06:17;98470.56;;;2.42;75.43
9899;BME280;4988;49.238;6.698;2022-12-10T14:09:12;98477.59;;;2.41;75.02
9899;BME280;4988;49.238;6.698;2022-12-10T14:11:59;98482.34;;;2.24;76.69
9899;BME280;4988;49.238;6.698;2022-12-10T14:14:31;98489.28;;;2.27;78.03
9899;BME280;4988;49.238;6.698;2022-12-10T14:17:06;98485.78;;;2.28;78.65
9899;BME280;4988;49.238;6.698;2022-12-10T14:19:35;98483.22;;;2.24;78.43
9899;BME280;4988;49.238;6.698;2022-12-10T14:22:06;98482.72;;;2.08;80.19
9899;BME280;4988;49.238;6.698;2022-12-10T14:24:39;98488.09;;;2.02;81.00
9899;BME280;4988;49.238;6.698;2022-12-10T14:27:25;98491.94;;;1.87;81.03
9899;BME280;4988;49.238;6.698;2022-12-10T14:29:58;98492.81;;;1.86;81.54
9899;BME280;4988;49.238;6.698;2022-12-10T14:32:42;98499.94;;;1.81;81.44
9899;BME280;4988;49.238;6.698;2022-12-10T14:35:20;98498.06;;;1.86;80.85
9899;BME280;4988;49.238;6.698;2022-12-10T14:37:48;98493.72;;;1.85;80.12
9899;BME280;4988;49.238;6.698;2022-12-10T14:40:22;98501.75;;;1.76;80.14
9899;BME280;4988;49.238;6.698;2022-12-10T14:42:49;98504.59;;;1.67;77.84
9899;BME280;4988;49.238;6.698;2022-12-10T14:45:15;98501.16;;;1.63;77.97
9899;BME280;4988;49.238;6.698;2022-12-10T14:47:41;98503.75;;;1.65;77.44
9899;BME280;4988;49.238;6.698;2022-12-10T14:50:15;98500.25;;;1.66;76.89
9899;BME280;4988;49.238;6.698;2022-12-10T14:52:49;98506.41;;;1.63;77.86
9899;BME280;4988;49.238;6.698;2022-12-10T14:55:17;98506.53;;;1.57;77.73